createdAt,value
2023-12-22T05:02:27.724Z,0.63
2023-12-22T05:04:54.584Z,0.93
2023-12-22T05:07:21.490Z,0.77
2023-12-22T05:09:48.300Z,0.52
2023-12-22T05:12:15.124Z,0.28
2023-12-22T05:14:41.863Z,0.43
2023-12-22T05:17:08.597Z,0.40
2023-12-22T05:19:35.332Z,0.30
2023-12-22T05:22:02.085Z,0.22
2023-12-22T05:24:28.864Z,0.45
2023-12-22T05:26:55.592Z,0.30
2023-12-22T05:29:22.413Z,0.40
2023-12-22T05:31:49.269Z,0.32
2023-12-22T05:34:16.010Z,0.22
2023-12-22T05:36:42.760Z,0.32
2023-12-22T05:39:10.962Z,0.28
2023-12-22T05:41:39.062Z,0.30
2023-12-22T05:44:07.287Z,0.30
2023-12-22T05:46:40.702Z,0.93
2023-12-22T05:49:07.931Z,0.38
2023-12-22T05:51:41.625Z,0.30
2023-12-22T05:54:09.650Z,0.22
2023-12-22T05:56:36.605Z,0.20
2023-12-22T05:59:04.493Z,0.55
2023-12-22T06:01:31.577Z,0.70
2023-12-22T06:03:58.462Z,0.90
2023-12-22T06:06:25.505Z,0.55
2023-12-22T06:08:52.382Z,1.20
2023-12-22T06:11:19.153Z,1.08
2023-12-22T06:13:45.959Z,0.80
2023-12-22T06:16:14.683Z,0.43
2023-12-22T06:18:42.186Z,0.10
2023-12-22T06:21:11.131Z,0.98
2023-12-22T06:23:38.135Z,0.90
2023-12-22T06:26:12.449Z,1.48
2023-12-22T06:28:40.899Z,0.55
2023-12-22T06:31:08.559Z,0.73
2023-12-22T06:33:35.516Z,0.80
2023-12-22T06:36:02.575Z,0.80
2023-12-22T06:38:29.378Z,0.22
2023-12-22T06:40:56.596Z,0.20
2023-12-22T06:43:23.609Z,0.50
2023-12-22T06:45:50.567Z,0.10
2023-12-22T06:48:17.495Z,0.30
2023-12-22T06:50:46.292Z,0.20
2023-12-22T06:53:21.843Z,0.20
2023-12-22T06:55:53.377Z,0.40
2023-12-22T06:58:22.462Z,0.10
2023-12-22T07:00:49.709Z,0.00
2023-12-22T07:03:17.508Z,0.10
2023-12-22T07:05:45.614Z,0.10
2023-12-22T07:08:12.714Z,0.10
2023-12-22T07:10:39.655Z,0.38
2023-12-22T07:13:08.960Z,0.20
2023-12-22T07:15:38.558Z,0.40
2023-12-22T07:20:32.874Z,1.10
2023-12-22T07:22:59.751Z,0.63
2023-12-22T07:25:26.654Z,0.30
2023-12-22T07:27:53.955Z,0.43
2023-12-22T07:30:21.897Z,1.10
2023-12-22T07:32:53.302Z,1.00
2023-12-22T07:35:20.449Z,1.27
2023-12-22T07:37:47.586Z,2.97
2023-12-22T07:40:15.935Z,0.68
2023-12-22T07:45:11.025Z,1.20
2023-12-22T07:47:41.677Z,0.68
2023-12-22T07:50:09.993Z,1.13
2023-12-22T07:52:39.977Z,0.50
2023-12-22T07:55:10.319Z,0.88
2023-12-22T07:57:37.620Z,1.40
2023-12-22T08:00:05.673Z,0.70
2023-12-22T08:02:39.048Z,0.90
2023-12-22T08:05:06.392Z,1.10
2023-12-22T08:07:33.233Z,1.05
2023-12-22T08:10:00.038Z,0.88
2023-12-22T08:12:27.980Z,0.73
2023-12-22T08:14:55.152Z,0.55
2023-12-22T08:17:21.965Z,1.17
2023-12-22T08:19:49.734Z,1.00
2023-12-22T08:22:17.885Z,0.85
2023-12-22T08:24:45.348Z,1.17
2023-12-22T08:27:12.493Z,1.63
2023-12-22T08:29:39.349Z,1.15
2023-12-22T08:32:06.482Z,1.23
2023-12-22T08:34:33.468Z,0.57
2023-12-22T08:37:01.583Z,0.50
2023-12-22T08:39:28.669Z,0.68
2023-12-22T08:41:55.644Z,1.40
2023-12-22T08:44:22.545Z,0.70
2023-12-22T08:46:49.458Z,1.23
2023-12-22T08:49:16.463Z,1.05
2023-12-22T08:51:44.034Z,0.98
2023-12-22T08:54:10.826Z,0.93
2023-12-22T08:56:37.592Z,0.80
2023-12-22T08:59:04.519Z,1.15
2023-12-22T09:01:31.474Z,0.70
2023-12-22T09:03:58.300Z,0.47
2023-12-22T09:06:26.192Z,0.65
2023-12-22T09:08:54.196Z,1.55
2023-12-22T09:11:22.392Z,0.73
2023-12-22T09:13:49.171Z,0.52
2023-12-22T09:16:22.665Z,1.08
2023-12-22T09:18:51.034Z,0.50
2023-12-22T09:21:18.393Z,0.80
2023-12-22T09:23:47.413Z,0.47
2023-12-22T09:26:15.340Z,0.77
2023-12-22T09:28:43.014Z,0.20
2023-12-22T09:31:10.583Z,0.38
2023-12-22T09:33:37.546Z,0.40
2023-12-22T09:36:04.690Z,0.30
2023-12-22T09:38:31.491Z,0.40
2023-12-22T09:40:59.457Z,0.60
2023-12-22T09:43:26.220Z,0.25
2023-12-22T09:45:54.091Z,0.85
2023-12-22T09:48:28.241Z,0.45
2023-12-22T09:50:55.803Z,0.40
2023-12-22T09:53:22.696Z,0.57
2023-12-22T09:55:51.155Z,0.73
2023-12-22T09:58:19.023Z,0.95
2023-12-22T10:00:46.099Z,0.77
2023-12-22T10:03:13.971Z,0.47
2023-12-22T10:05:44.762Z,0.82
2023-12-22T10:08:12.954Z,0.90
2023-12-22T10:10:44.354Z,1.08
2023-12-22T10:13:11.923Z,0.77
2023-12-22T10:15:42.022Z,1.05
2023-12-22T10:18:09.704Z,1.75
2023-12-22T10:20:37.328Z,1.58
2023-12-22T10:23:04.513Z,1.70
2023-12-22T10:25:32.033Z,1.50
2023-12-22T10:27:58.992Z,1.48
2023-12-22T10:30:26.345Z,1.98
2023-12-22T10:32:53.132Z,2.10
2023-12-22T10:35:22.053Z,1.88
2023-12-22T10:37:49.769Z,1.40
2023-12-22T10:40:18.114Z,1.63
2023-12-22T10:42:44.909Z,1.50
2023-12-22T10:45:11.674Z,1.63
2023-12-22T10:47:40.839Z,1.70
2023-12-22T10:50:08.191Z,2.95
2023-12-22T10:52:35.538Z,2.42
2023-12-22T10:55:03.774Z,1.63
2023-12-22T10:57:38.535Z,1.70
2023-12-22T11:00:08.765Z,1.40
2023-12-22T11:02:37.023Z,2.05
2023-12-22T11:05:07.842Z,0.75
2023-12-22T11:07:36.895Z,1.40
2023-12-22T11:10:05.835Z,1.00
2023-12-22T11:12:39.575Z,2.17
2023-12-22T11:15:10.324Z,1.80
2023-12-22T11:17:42.343Z,2.45
2023-12-22T11:20:11.157Z,1.83
2023-12-22T11:22:39.471Z,1.40
2023-12-22T11:25:10.706Z,1.80
2023-12-22T11:27:39.422Z,1.38
2023-12-22T11:30:09.471Z,1.50
2023-12-22T11:32:37.386Z,1.65
2023-12-22T11:35:06.406Z,1.60
2023-12-22T11:37:34.504Z,1.70
2023-12-22T11:40:01.702Z,2.22
2023-12-22T11:42:39.440Z,1.38
2023-12-22T11:45:06.429Z,1.70
2023-12-22T11:47:34.801Z,1.55
2023-12-22T11:50:01.978Z,1.45
2023-12-22T11:52:29.634Z,1.30
2023-12-22T11:54:57.621Z,2.58
2023-12-22T11:57:35.706Z,1.80
2023-12-22T12:00:09.631Z,1.27
2023-12-22T12:02:41.929Z,1.00
2023-12-22T12:05:10.678Z,1.15
2023-12-22T12:07:45.688Z,2.37
2023-12-22T12:10:38.317Z,1.77
2023-12-22T12:13:13.029Z,1.38
2023-12-22T12:15:40.167Z,1.25
2023-12-22T12:18:07.381Z,1.20
2023-12-22T12:20:34.991Z,1.35
2023-12-22T12:23:06.112Z,1.35
2023-12-22T12:25:37.290Z,0.75
2023-12-22T12:28:15.362Z,1.33
2023-12-22T12:30:42.324Z,1.05
2023-12-22T12:33:11.260Z,0.73
2023-12-22T12:35:46.907Z,0.93
2023-12-22T12:38:18.428Z,0.93
2023-12-22T12:40:48.207Z,0.75
2023-12-22T12:43:15.958Z,1.02
2023-12-22T12:45:42.912Z,1.10
2023-12-22T12:48:09.955Z,1.00
2023-12-22T12:50:37.669Z,0.93
2023-12-22T12:53:07.486Z,0.63
2023-12-22T12:58:01.151Z,0.95
2023-12-22T13:00:29.239Z,1.08
2023-12-22T13:02:57.369Z,0.70
2023-12-22T13:05:24.997Z,0.63
2023-12-22T13:07:52.256Z,0.75
2023-12-22T13:10:26.903Z,0.63
2023-12-22T13:12:55.366Z,0.77
2023-12-22T13:15:22.705Z,0.50
2023-12-22T13:17:50.082Z,0.35
2023-12-22T13:20:17.226Z,0.22
2023-12-22T13:22:45.295Z,0.25
2023-12-22T13:25:12.684Z,0.60
2023-12-22T13:27:47.460Z,0.35
2023-12-22T13:30:15.730Z,0.50
2023-12-22T13:32:42.769Z,0.28
2023-12-22T13:35:10.512Z,0.40
2023-12-22T13:37:42.077Z,0.38
2023-12-22T13:40:10.339Z,0.25
2023-12-22T13:42:38.917Z,0.70
2023-12-22T13:45:11.006Z,0.15
2023-12-22T13:47:42.876Z,0.20
2023-12-22T13:50:17.054Z,0.65
2023-12-22T13:52:47.761Z,0.20
2023-12-22T13:55:16.715Z,0.47
2023-12-22T13:57:43.797Z,0.35
2023-12-22T14:00:25.582Z,0.30
2023-12-22T14:02:52.364Z,0.85
2023-12-22T14:05:19.517Z,0.17
2023-12-22T14:07:47.328Z,0.30
2023-12-22T14:10:14.921Z,0.40
2023-12-22T14:12:42.443Z,0.10
2023-12-22T14:15:09.926Z,0.50
2023-12-22T14:17:37.344Z,0.43
2023-12-22T14:20:06.192Z,0.40
2023-12-22T14:22:33.123Z,0.55
2023-12-22T14:24:59.902Z,0.50
2023-12-22T14:27:29.427Z,0.32
2023-12-22T14:29:56.214Z,0.47
2023-12-22T14:32:23.665Z,0.30
2023-12-22T14:34:50.856Z,0.38
2023-12-22T14:37:18.363Z,0.32
2023-12-22T14:39:48.195Z,0.82
2023-12-22T14:42:15.287Z,0.30
2023-12-22T14:44:42.261Z,0.38
2023-12-22T14:47:11.951Z,0.10
2023-12-22T14:49:40.876Z,0.28
2023-12-22T14:52:07.856Z,0.40
2023-12-22T14:54:39.837Z,0.40
2023-12-22T14:57:06.663Z,0.30
2023-12-22T14:59:36.213Z,0.40
2023-12-22T15:02:06.392Z,0.25
2023-12-22T15:04:34.650Z,0.40
2023-12-22T15:07:02.326Z,0.40
2023-12-22T15:09:29.682Z,0.50
2023-12-22T15:11:57.054Z,0.40
2023-12-22T15:14:24.310Z,0.63
2023-12-22T15:16:53.638Z,0.50
2023-12-22T15:19:21.089Z,0.80
2023-12-22T15:21:48.335Z,0.40
2023-12-22T15:24:15.792Z,0.50
2023-12-22T15:26:42.569Z,0.68
2023-12-22T15:29:10.227Z,0.40
2023-12-22T15:31:38.304Z,0.52
2023-12-22T15:34:07.242Z,0.25
2023-12-22T15:36:35.074Z,0.50
2023-12-22T15:39:02.335Z,0.40
2023-12-22T15:41:32.564Z,0.38
2023-12-22T15:44:00.365Z,0.30
2023-12-22T15:46:27.209Z,0.70
2023-12-22T15:48:54.221Z,0.32
2023-12-22T15:51:21.482Z,0.38
2023-12-22T15:53:48.774Z,0.35
2023-12-22T15:56:17.185Z,0.40
2023-12-22T15:58:45.333Z,0.45
2023-12-22T16:01:15.448Z,0.15
2023-12-22T16:03:43.083Z,0.10
2023-12-22T16:06:10.086Z,0.38
2023-12-22T16:08:37.297Z,0.50
2023-12-22T16:11:05.789Z,0.50
2023-12-22T16:13:34.131Z,0.30
2023-12-22T16:16:02.427Z,0.47
2023-12-22T16:18:29.876Z,0.68
2023-12-22T16:20:57.147Z,0.40
2023-12-22T16:23:24.021Z,0.40
2023-12-22T16:25:56.894Z,0.30
2023-12-22T16:28:24.345Z,0.35
2023-12-22T16:30:51.134Z,0.60
2023-12-22T16:33:18.355Z,0.60
2023-12-22T16:35:45.285Z,0.90
2023-12-22T16:38:12.307Z,0.32
2023-12-22T16:40:39.840Z,0.60
2023-12-22T16:43:06.796Z,0.52
2023-12-22T16:45:33.712Z,0.47
2023-12-22T16:48:02.189Z,0.60
2023-12-22T16:50:29.402Z,0.50
2023-12-22T16:52:56.768Z,0.55
2023-12-22T16:55:23.886Z,0.55
2023-12-22T16:57:51.237Z,0.50
2023-12-22T17:00:20.721Z,0.30
2023-12-22T17:02:48.356Z,0.73
2023-12-22T17:05:16.180Z,0.55
2023-12-22T17:07:44.893Z,0.45
2023-12-22T17:10:12.272Z,0.60
2023-12-22T17:12:39.140Z,0.60
2023-12-22T17:15:06.871Z,0.47
2023-12-22T17:17:34.715Z,0.47
2023-12-22T17:20:03.477Z,1.02
2023-12-22T17:22:31.425Z,0.57
2023-12-22T17:24:58.325Z,0.28
2023-12-22T17:27:25.201Z,0.65
2023-12-22T17:29:52.137Z,0.68
2023-12-22T17:32:19.038Z,0.50
2023-12-22T17:34:46.050Z,0.68
2023-12-22T17:37:13.159Z,0.60
2023-12-22T17:39:40.020Z,1.52
2023-12-22T17:42:06.867Z,0.77
2023-12-22T17:44:33.612Z,0.68
2023-12-22T17:47:04.791Z,0.98
2023-12-22T17:49:33.287Z,0.70
2023-12-22T17:52:00.334Z,0.50
2023-12-22T17:54:27.253Z,0.30
2023-12-22T17:56:54.334Z,0.50
2023-12-22T17:59:21.468Z,0.70
2023-12-22T18:01:50.316Z,0.50
2023-12-22T18:04:17.389Z,0.50
2023-12-22T18:06:44.120Z,0.43
2023-12-22T18:09:10.850Z,0.45
2023-12-22T18:11:42.383Z,0.57
2023-12-22T18:14:09.949Z,0.73
2023-12-22T18:16:41.287Z,0.45
2023-12-22T18:19:08.705Z,0.40
2023-12-22T18:21:36.143Z,0.50
2023-12-22T18:24:02.946Z,0.40
2023-12-22T18:26:29.705Z,0.70
2023-12-22T18:28:57.215Z,0.70
2023-12-22T18:31:24.410Z,0.40
2023-12-22T18:33:51.258Z,0.70
2023-12-22T18:36:18.113Z,0.47
2023-12-22T18:38:44.908Z,0.80
2023-12-22T18:41:12.079Z,0.50
2023-12-22T18:43:39.534Z,0.50
2023-12-22T18:46:07.306Z,0.70
2023-12-22T18:48:34.429Z,1.00
2023-12-22T18:51:01.475Z,0.57
2023-12-22T18:53:28.258Z,0.60
2023-12-22T18:55:55.336Z,0.70
2023-12-22T18:58:22.225Z,0.70
2023-12-22T19:00:49.089Z,0.35
2023-12-22T19:03:16.179Z,0.50
2023-12-22T19:05:43.335Z,0.50
2023-12-22T19:08:10.473Z,0.30
2023-12-22T19:10:37.361Z,0.57
2023-12-22T19:13:04.372Z,0.50
2023-12-22T19:15:31.941Z,0.50
2023-12-22T19:18:00.465Z,0.40
2023-12-22T19:20:27.422Z,0.70
2023-12-22T19:22:54.353Z,0.60
2023-12-22T19:25:21.245Z,0.70
2023-12-22T19:27:48.921Z,0.40
2023-12-22T19:30:17.549Z,0.47
2023-12-22T19:32:46.272Z,0.50
2023-12-22T19:35:13.749Z,0.98
2023-12-22T19:37:40.943Z,0.50
2023-12-22T19:40:08.657Z,0.52
2023-12-22T19:42:35.512Z,0.70
2023-12-22T19:45:02.799Z,1.00
2023-12-22T19:47:29.927Z,0.50
2023-12-22T19:49:57.705Z,0.40
2023-12-22T19:52:25.301Z,0.43
2023-12-22T19:54:52.096Z,0.40
2023-12-22T19:57:18.920Z,0.70
2023-12-22T19:59:45.826Z,0.70
2023-12-22T20:02:12.968Z,0.52
2023-12-22T20:04:39.921Z,0.55
2023-12-22T20:07:06.900Z,0.88
2023-12-22T20:09:34.327Z,0.60
2023-12-22T20:12:01.864Z,0.63
2023-12-22T20:14:28.852Z,0.65
2023-12-22T20:16:55.943Z,0.50
2023-12-22T20:19:23.099Z,0.73
2023-12-22T20:21:50.202Z,0.68
2023-12-22T20:24:17.352Z,0.30
2023-12-22T20:26:44.308Z,0.70
2023-12-22T20:29:11.207Z,0.88
2023-12-22T20:31:38.491Z,0.50
2023-12-22T20:34:06.028Z,0.43
2023-12-22T20:36:33.207Z,0.65
2023-12-22T20:39:00.027Z,0.40
2023-12-22T20:41:26.883Z,0.57
2023-12-22T20:43:54.335Z,0.50
2023-12-22T20:46:21.288Z,0.70
2023-12-22T20:48:48.206Z,0.50
2023-12-22T20:51:15.076Z,0.50
2023-12-22T20:53:41.918Z,0.60
2023-12-22T20:56:19.769Z,0.82
2023-12-22T20:58:46.762Z,0.40
2023-12-22T21:01:15.839Z,0.63
2023-12-22T21:03:45.573Z,0.75
2023-12-22T21:08:39.209Z,0.70
2023-12-22T21:11:08.074Z,0.73
2023-12-22T21:13:35.211Z,0.57
2023-12-22T21:16:06.766Z,0.38
2023-12-22T21:18:34.172Z,0.60
2023-12-22T21:21:05.279Z,0.50
2023-12-22T21:23:32.382Z,0.55
2023-12-22T21:25:59.821Z,0.60
2023-12-22T21:28:26.883Z,0.73
2023-12-22T21:30:54.215Z,0.55
2023-12-22T21:33:21.152Z,0.38
2023-12-22T21:35:47.975Z,0.80
2023-12-22T21:38:14.792Z,0.55
2023-12-22T21:40:41.688Z,0.75
2023-12-22T21:43:08.529Z,0.70
2023-12-22T21:45:35.802Z,0.80
2023-12-22T21:48:03.154Z,0.38
2023-12-22T21:50:30.013Z,0.70
2023-12-22T21:52:58.750Z,0.80
2023-12-22T21:55:25.594Z,0.90
2023-12-22T21:57:52.711Z,0.80
2023-12-22T22:00:19.956Z,0.52
2023-12-22T22:02:46.739Z,0.35
2023-12-22T22:05:13.920Z,0.90
2023-12-22T22:07:40.820Z,0.50
2023-12-22T22:10:08.080Z,0.43
2023-12-22T22:12:34.876Z,0.70
2023-12-22T22:15:03.969Z,0.52
2023-12-22T22:17:30.977Z,0.60
2023-12-22T22:19:57.975Z,0.82
2023-12-22T22:22:24.913Z,0.60
2023-12-22T22:24:51.747Z,0.50
2023-12-22T22:27:18.621Z,0.65
2023-12-22T22:29:46.207Z,0.50
2023-12-22T22:32:13.137Z,0.73
2023-12-22T22:34:41.293Z,0.52
2023-12-22T22:37:09.293Z,0.40
2023-12-22T22:39:38.894Z,0.68
2023-12-22T22:42:05.916Z,0.38
2023-12-22T22:44:32.757Z,0.77
2023-12-22T22:47:00.158Z,0.75
2023-12-22T22:49:26.940Z,0.73
2023-12-22T22:51:56.823Z,0.93
2023-12-22T22:54:23.589Z,0.60
2023-12-22T22:56:50.475Z,0.60
2023-12-22T22:59:17.872Z,0.38
2023-12-22T23:01:48.028Z,0.45
2023-12-22T23:04:15.169Z,0.40
2023-12-22T23:06:42.114Z,0.52
2023-12-22T23:09:08.860Z,1.08
2023-12-22T23:11:35.776Z,0.63
2023-12-22T23:14:03.783Z,0.30
2023-12-22T23:16:31.042Z,0.65
2023-12-22T23:18:58.032Z,0.57
2023-12-22T23:21:24.938Z,0.57
2023-12-22T23:23:51.751Z,0.90
2023-12-22T23:26:18.616Z,1.17
2023-12-22T23:28:46.656Z,1.13
2023-12-22T23:31:13.579Z,0.68
2023-12-22T23:33:40.371Z,1.00
2023-12-22T23:36:18.579Z,0.90
2023-12-22T23:38:52.093Z,0.88
2023-12-22T23:41:19.024Z,0.60
2023-12-22T23:43:45.880Z,0.70
2023-12-22T23:46:13.001Z,0.77
2023-12-22T23:48:42.837Z,0.88
2023-12-22T23:51:16.376Z,0.63
2023-12-22T23:53:43.258Z,0.45
2023-12-22T23:56:11.012Z,0.70
2023-12-22T23:58:37.944Z,1.30
